createdAt,value
2023-01-20T00:01:11.488Z,53.70
2023-01-20T00:03:39.646Z,58.70
2023-01-20T00:06:08.490Z,57.20
2023-01-20T00:08:36.814Z,58.60
2023-01-20T00:11:06.732Z,58.20
2023-01-20T00:13:35.553Z,58.50
2023-01-20T00:16:04.299Z,61.10
2023-01-20T00:18:32.735Z,60.50
2023-01-20T00:21:04.796Z,64.20
2023-01-20T00:23:33.422Z,57.90
2023-01-20T00:26:05.847Z,59.60
2023-01-20T00:28:34.223Z,59.90
2023-01-20T00:31:12.121Z,57.40
2023-01-20T00:33:40.676Z,58.30
2023-01-20T00:36:10.285Z,59.60
2023-01-20T00:38:38.972Z,57.00
2023-01-20T00:41:07.851Z,55.20
2023-01-20T00:43:36.463Z,56.70
2023-01-20T00:46:05.350Z,51.70
2023-01-20T00:48:34.029Z,53.00
2023-01-20T00:51:02.644Z,56.60
2023-01-20T00:53:30.760Z,59.90
2023-01-20T00:55:58.774Z,54.00
2023-01-20T00:58:26.956Z,51.10
2023-01-20T01:00:55.541Z,53.20
2023-01-20T01:03:23.516Z,50.70
2023-01-20T01:05:51.495Z,49.90
2023-01-20T01:08:19.489Z,46.50
2023-01-20T01:10:47.396Z,47.00
2023-01-20T01:13:15.373Z,55.80
2023-01-20T01:15:49.366Z,44.50
2023-01-20T01:18:18.060Z,44.30
2023-01-20T01:20:46.366Z,47.10
2023-01-20T01:23:14.449Z,45.20
2023-01-20T01:25:42.344Z,46.60
2023-01-20T01:28:10.299Z,42.80
2023-01-20T01:30:38.232Z,45.10
2023-01-20T01:33:06.279Z,42.50
2023-01-20T01:35:34.168Z,38.90
2023-01-20T01:38:02.140Z,41.60
2023-01-20T01:40:30.215Z,47.90
2023-01-20T01:42:58.068Z,47.70
2023-01-20T01:45:27.997Z,42.40
2023-01-20T01:48:02.817Z,43.10
2023-01-20T01:50:36.521Z,45.30
2023-01-20T01:53:06.945Z,41.70
2023-01-20T01:55:39.016Z,43.40
2023-01-20T01:58:09.150Z,39.40
2023-01-20T02:00:38.520Z,42.50
2023-01-20T02:03:07.174Z,47.00
2023-01-20T02:05:36.863Z,45.70
2023-01-20T02:08:06.982Z,51.50
2023-01-20T02:10:34.984Z,44.60
2023-01-20T02:13:04.429Z,50.30
2023-01-20T02:15:38.658Z,44.80
2023-01-20T02:18:38.066Z,49.70
2023-01-20T02:21:40.659Z,47.60
2023-01-20T02:24:31.717Z,50.90
2023-01-20T02:27:09.655Z,54.50
2023-01-20T02:30:08.614Z,45.90
2023-01-20T02:32:47.047Z,51.10
2023-01-20T02:35:22.230Z,47.50
2023-01-20T02:40:31.015Z,49.40
2023-01-20T02:43:07.348Z,50.10
2023-01-20T02:45:42.698Z,46.90
2023-01-20T02:48:18.226Z,48.50
2023-01-20T02:50:58.591Z,48.00
2023-01-20T02:53:31.432Z,53.90
2023-01-20T02:55:59.759Z,56.40
2023-01-20T02:58:33.368Z,53.40
2023-01-20T03:01:05.758Z,53.20
2023-01-20T03:03:38.145Z,52.30
2023-01-20T03:06:12.029Z,53.70
2023-01-20T03:08:41.426Z,55.90
2023-01-20T03:11:09.768Z,65.70
2023-01-20T03:13:45.095Z,60.60
2023-01-20T03:16:17.669Z,60.90
2023-01-20T03:18:45.852Z,52.20
2023-01-20T03:21:14.049Z,55.90
2023-01-20T03:23:45.240Z,57.60
2023-01-20T03:26:15.871Z,55.40
2023-01-20T03:28:45.432Z,54.70
2023-01-20T03:31:19.884Z,57.90
2023-01-20T03:33:51.297Z,61.50
2023-01-20T03:36:22.695Z,61.10
2023-01-20T03:38:51.582Z,57.50
2023-01-20T03:41:29.933Z,63.10
2023-01-20T03:44:10.144Z,70.30
2023-01-20T03:46:47.115Z,60.40
2023-01-20T03:49:24.668Z,60.10
2023-01-20T03:52:02.623Z,61.40
2023-01-20T03:54:41.064Z,70.30
2023-01-20T03:57:13.611Z,61.00
2023-01-20T03:59:43.798Z,58.20
2023-01-20T04:02:13.504Z,66.00
2023-01-20T04:04:44.641Z,62.70
2023-01-20T04:07:18.491Z,55.70
2023-01-20T04:09:52.528Z,63.10
2023-01-20T04:12:20.725Z,63.50
2023-01-20T04:14:50.186Z,58.00
2023-01-20T04:17:18.548Z,63.10
2023-01-20T04:19:46.668Z,63.60
2023-01-20T04:22:22.390Z,66.50
2023-01-20T04:24:54.220Z,60.20
2023-01-20T04:27:22.303Z,61.20
2023-01-20T04:29:50.243Z,64.40
2023-01-20T04:32:18.321Z,63.00
2023-01-20T04:34:46.306Z,57.50
2023-01-20T04:37:14.171Z,58.80
2023-01-20T04:39:42.127Z,63.40
2023-01-20T04:42:11.128Z,53.80
2023-01-20T04:44:40.304Z,51.60
2023-01-20T04:47:09.233Z,58.50
2023-01-20T04:49:37.659Z,59.30
2023-01-20T04:52:06.023Z,54.60
2023-01-20T04:54:34.300Z,52.20
2023-01-20T04:57:02.210Z,80.00
2023-01-20T04:59:30.275Z,63.30
2023-01-20T05:01:58.430Z,48.20
2023-01-20T05:04:28.348Z,55.80
2023-01-20T05:06:56.231Z,50.20
2023-01-20T05:09:25.158Z,49.90
2023-01-20T05:11:53.191Z,53.60
2023-01-20T05:14:21.200Z,47.10
2023-01-20T05:16:49.170Z,52.40
2023-01-20T05:19:17.103Z,48.60
2023-01-20T05:21:45.078Z,50.70
2023-01-20T05:24:13.130Z,48.30
2023-01-20T05:26:41.083Z,52.40
2023-01-20T05:29:09.028Z,57.60
2023-01-20T05:31:38.077Z,48.50
2023-01-20T05:34:06.085Z,54.10
2023-01-20T05:36:34.103Z,56.20
2023-01-20T05:39:02.110Z,50.60
2023-01-20T05:41:30.128Z,55.50
2023-01-20T05:43:58.048Z,53.90
2023-01-20T05:46:26.121Z,61.70
2023-01-20T05:48:54.162Z,56.50
2023-01-20T05:51:22.584Z,73.10
2023-01-20T05:53:50.567Z,72.00
2023-01-20T05:56:18.528Z,57.80
2023-01-20T05:58:46.468Z,60.60
2023-01-20T06:01:15.154Z,61.40
2023-01-20T06:03:43.615Z,55.70
2023-01-20T06:06:14.923Z,57.80
2023-01-20T06:08:44.484Z,53.10
2023-01-20T06:11:17.406Z,51.90
2023-01-20T06:13:47.886Z,63.60
2023-01-20T06:16:17.302Z,56.00
2023-01-20T06:18:45.843Z,58.00
2023-01-20T06:21:14.716Z,57.80
2023-01-20T06:23:42.808Z,56.20
2023-01-20T06:26:13.771Z,72.50
2023-01-20T06:28:42.235Z,68.80
2023-01-20T06:31:12.946Z,67.50
2023-01-20T06:33:43.284Z,61.20
2023-01-20T06:36:15.185Z,70.80
2023-01-20T06:38:47.860Z,76.40
2023-01-20T06:41:20.604Z,71.70
2023-01-20T06:43:50.870Z,67.30
2023-01-20T06:46:19.706Z,79.80
2023-01-20T06:48:49.108Z,61.80
2023-01-20T06:51:18.957Z,57.50
2023-01-20T06:53:47.058Z,64.10
2023-01-20T06:56:15.804Z,57.40
2023-01-20T06:58:44.601Z,65.90
2023-01-20T07:01:14.931Z,63.80
2023-01-20T07:03:43.617Z,66.80
2023-01-20T07:06:17.234Z,51.70
2023-01-20T07:08:46.118Z,53.40
2023-01-20T07:11:14.160Z,57.20
2023-01-20T07:13:42.526Z,52.50
2023-01-20T07:16:14.387Z,65.10
2023-01-20T07:18:46.798Z,51.50
2023-01-20T07:21:14.741Z,55.40
2023-01-20T07:23:42.943Z,56.90
2023-01-20T07:26:13.277Z,51.70
2023-01-20T07:28:43.345Z,47.90
2023-01-20T07:31:13.565Z,54.90
2023-01-20T07:33:41.508Z,40.40
2023-01-20T07:36:11.562Z,53.00
2023-01-20T07:38:40.235Z,50.70
2023-01-20T07:41:15.038Z,47.70
2023-01-20T07:43:43.718Z,49.50
2023-01-20T07:46:12.590Z,54.70
2023-01-20T07:48:41.082Z,49.50
2023-01-20T07:51:12.131Z,43.70
2023-01-20T07:53:42.907Z,52.60
2023-01-20T07:56:12.991Z,46.90
2023-01-20T07:58:40.869Z,45.60
2023-01-20T08:01:11.367Z,42.60
2023-01-20T08:03:40.056Z,45.00
2023-01-20T08:06:10.792Z,45.00
2023-01-20T08:08:39.492Z,42.30
2023-01-20T08:11:08.856Z,46.50
2023-01-20T08:13:36.842Z,42.40
2023-01-20T08:16:07.482Z,39.70
2023-01-20T08:18:36.541Z,49.20
2023-01-20T08:21:07.495Z,40.70
2023-01-20T08:23:36.751Z,45.80
2023-01-20T08:26:06.847Z,42.00
2023-01-20T08:28:36.014Z,39.50
2023-01-20T08:31:05.943Z,41.60
2023-01-20T08:33:33.986Z,44.60
2023-01-20T08:36:08.473Z,46.10
2023-01-20T08:38:36.638Z,46.50
2023-01-20T08:41:08.547Z,45.00
2023-01-20T08:43:37.063Z,44.30
2023-01-20T08:46:08.690Z,42.70
2023-01-20T08:48:37.778Z,36.80
2023-01-20T08:51:07.326Z,41.10
2023-01-20T08:53:35.420Z,44.60
2023-01-20T08:56:03.977Z,42.20
2023-01-20T08:58:32.101Z,38.90
2023-01-20T09:01:00.969Z,40.80
2023-01-20T09:03:29.084Z,34.80
2023-01-20T09:06:01.225Z,41.90
2023-01-20T09:08:30.033Z,39.30
2023-01-20T09:11:03.815Z,40.00
2023-01-20T09:13:31.951Z,37.70
2023-01-20T09:16:00.169Z,36.00
2023-01-20T09:18:28.403Z,39.10
2023-01-20T09:20:58.123Z,42.00
2023-01-20T09:23:26.130Z,40.80
2023-01-20T09:25:54.203Z,38.90
2023-01-20T09:28:22.169Z,35.00
2023-01-20T09:30:50.345Z,35.70
2023-01-20T09:33:18.297Z,42.00
2023-01-20T09:35:54.623Z,37.00
2023-01-20T09:38:43.408Z,45.10
2023-01-20T09:41:37.762Z,41.10
2023-01-20T09:44:32.945Z,33.90
2023-01-20T09:47:21.571Z,38.80
2023-01-20T09:50:33.510Z,33.40
2023-01-20T09:53:07.924Z,36.80
2023-01-20T09:55:52.086Z,35.60
2023-01-20T09:58:32.641Z,38.10
2023-01-20T10:01:12.481Z,34.20
2023-01-20T10:03:46.907Z,31.90
2023-01-20T10:06:20.138Z,36.00
2023-01-20T10:09:05.032Z,35.70
2023-01-20T10:14:12.252Z,40.10
2023-01-20T10:16:45.033Z,32.70
2023-01-20T10:19:21.401Z,38.00
2023-01-20T10:21:53.166Z,29.90
2023-01-20T10:24:28.204Z,41.70
2023-01-20T10:27:01.009Z,35.70
2023-01-20T10:29:34.076Z,40.60
2023-01-20T10:32:04.139Z,47.20
2023-01-20T10:34:44.893Z,46.00
2023-01-20T10:37:14.620Z,40.40
2023-01-20T10:39:49.898Z,39.00
2023-01-20T10:44:47.889Z,38.90
2023-01-20T10:47:37.726Z,41.30
2023-01-20T10:50:43.957Z,39.80
2023-01-20T10:53:33.380Z,36.70
2023-01-20T10:56:12.062Z,40.30
2023-01-20T10:58:43.764Z,43.50
2023-01-20T11:01:16.550Z,43.30
2023-01-20T11:03:47.665Z,44.60
2023-01-20T11:06:20.334Z,40.00
2023-01-20T11:08:49.137Z,39.40
2023-01-20T11:11:20.051Z,34.60
2023-01-20T11:13:48.038Z,36.00
2023-01-20T11:16:24.013Z,44.30
2023-01-20T11:18:58.211Z,36.00
2023-01-20T11:21:28.242Z,42.40
2023-01-20T11:23:57.847Z,41.40
2023-01-20T11:26:28.723Z,36.00
2023-01-20T11:28:59.195Z,40.00
2023-01-20T11:31:41.035Z,34.10
2023-01-20T11:34:22.656Z,33.80
2023-01-20T11:36:51.725Z,28.80
2023-01-20T11:39:29.733Z,34.80
2023-01-20T11:42:14.876Z,28.60
2023-01-20T11:44:43.969Z,34.00
2023-01-20T11:47:27.355Z,26.60
2023-01-20T11:50:24.284Z,28.50
2023-01-20T11:52:52.560Z,24.60
2023-01-20T11:55:23.459Z,28.50
2023-01-20T11:57:55.287Z,27.00
2023-01-20T12:00:34.447Z,27.20
2023-01-20T12:03:17.447Z,27.00
2023-01-20T12:05:52.884Z,29.00
2023-01-20T12:08:28.318Z,33.30
2023-01-20T12:11:00.032Z,28.40
2023-01-20T12:13:53.294Z,30.10
2023-01-20T12:16:23.885Z,30.00
2023-01-20T12:19:02.298Z,35.20
2023-01-20T12:21:36.863Z,31.50
2023-01-20T12:24:12.115Z,28.80
2023-01-20T12:29:18.896Z,27.90
2023-01-20T12:31:48.622Z,30.10
2023-01-20T12:34:21.193Z,33.90
2023-01-20T12:37:16.302Z,24.10
2023-01-20T12:39:56.964Z,25.80
2023-01-20T12:43:05.391Z,27.80
2023-01-20T12:46:08.662Z,46.30
2023-01-20T12:48:51.769Z,28.50
2023-01-20T12:51:31.670Z,24.30
2023-01-20T12:54:47.424Z,19.20
2023-01-20T12:57:29.599Z,23.30
2023-01-20T13:00:18.338Z,22.00
2023-01-20T13:03:29.819Z,22.30
2023-01-20T13:06:18.730Z,26.90
2023-01-20T13:08:57.672Z,22.10
2023-01-20T13:11:45.141Z,20.30
2023-01-20T13:14:18.424Z,26.90
2023-01-20T13:16:53.363Z,23.00
2023-01-20T13:19:29.466Z,30.20
2023-01-20T13:22:08.036Z,25.50
2023-01-20T13:24:37.398Z,28.40
2023-01-20T13:27:07.505Z,26.60
2023-01-20T13:29:51.656Z,26.30
2023-01-20T13:32:44.618Z,28.20
2023-01-20T13:35:43.691Z,29.60
2023-01-20T13:38:23.109Z,21.70
2023-01-20T13:40:54.321Z,22.30
2023-01-20T13:43:57.983Z,24.10
2023-01-20T13:46:52.928Z,26.70
2023-01-20T13:49:43.055Z,28.20
2023-01-20T13:52:11.531Z,25.90
2023-01-20T13:54:48.831Z,31.30
2023-01-20T13:57:46.437Z,22.30
2023-01-20T14:00:17.175Z,21.90
2023-01-20T14:02:46.865Z,18.70
2023-01-20T14:05:26.697Z,25.10
2023-01-20T14:07:54.894Z,24.50
2023-01-20T14:10:23.702Z,24.30
2023-01-20T14:12:51.813Z,22.50
2023-01-20T14:15:31.843Z,21.20
2023-01-20T14:18:00.714Z,19.50
2023-01-20T14:20:30.356Z,28.50
2023-01-20T14:23:29.272Z,20.90
2023-01-20T14:25:59.714Z,17.60
2023-01-20T14:28:27.789Z,23.50
2023-01-20T14:31:17.417Z,15.50
2023-01-20T14:33:47.228Z,13.80
2023-01-20T14:36:21.119Z,16.00
2023-01-20T14:38:58.316Z,17.60
2023-01-20T14:41:33.765Z,20.30
2023-01-20T14:44:02.638Z,15.30
2023-01-20T14:46:32.803Z,16.60
2023-01-20T14:49:01.531Z,18.50
2023-01-20T14:51:30.205Z,16.30
2023-01-20T14:54:29.802Z,23.80
2023-01-20T14:56:58.992Z,17.40
2023-01-20T14:59:27.239Z,18.50
2023-01-20T15:02:09.712Z,22.80
2023-01-20T15:04:38.802Z,20.80
2023-01-20T15:07:15.592Z,17.80
2023-01-20T15:09:53.805Z,19.20
2023-01-20T15:12:42.005Z,16.70
2023-01-20T15:15:19.916Z,21.30
2023-01-20T15:18:20.735Z,21.30
2023-01-20T15:20:54.940Z,24.10
2023-01-20T15:23:34.900Z,24.80
2023-01-20T15:26:09.682Z,21.60
2023-01-20T15:28:42.230Z,21.70
2023-01-20T15:31:14.520Z,27.80
2023-01-20T15:33:43.304Z,20.30
2023-01-20T15:36:21.419Z,20.70
2023-01-20T15:38:50.396Z,32.50
2023-01-20T15:41:18.809Z,23.70
2023-01-20T15:43:48.552Z,23.40
2023-01-20T15:46:18.498Z,26.80
2023-01-20T15:48:46.714Z,30.50
2023-01-20T15:51:16.373Z,26.40
2023-01-20T15:53:45.335Z,31.40
2023-01-20T15:56:19.501Z,24.60
2023-01-20T15:58:48.146Z,31.20
2023-01-20T16:01:18.586Z,29.00
2023-01-20T16:03:46.582Z,25.70
2023-01-20T16:06:16.942Z,25.20
2023-01-20T16:08:46.854Z,28.50
2023-01-20T16:11:16.159Z,25.70
2023-01-20T16:13:44.946Z,30.70
2023-01-20T16:16:15.647Z,29.40
2023-01-20T16:18:44.194Z,22.40
2023-01-20T16:21:13.565Z,29.80
2023-01-20T16:23:42.174Z,30.80
2023-01-20T16:26:19.208Z,26.70
2023-01-20T16:28:47.142Z,24.90
2023-01-20T16:31:15.642Z,25.50
2023-01-20T16:33:44.073Z,27.20
2023-01-20T16:36:14.560Z,21.00
2023-01-20T16:38:43.156Z,21.80
2023-01-20T16:41:15.362Z,17.00
2023-01-20T16:43:43.755Z,18.10
2023-01-20T16:46:14.912Z,20.10
2023-01-20T16:48:43.385Z,17.70
2023-01-20T16:51:13.284Z,18.50
2023-01-20T16:53:41.544Z,18.90
2023-01-20T16:56:14.054Z,15.90
2023-01-20T16:58:42.213Z,16.30
2023-01-20T17:01:12.310Z,19.10
2023-01-20T17:03:41.236Z,15.40
2023-01-20T17:06:11.691Z,19.30
2023-01-20T17:08:39.702Z,19.50
2023-01-20T17:11:07.605Z,21.60
2023-01-20T17:13:36.284Z,23.20
2023-01-20T17:16:05.426Z,19.20
2023-01-20T17:18:33.665Z,24.20
2023-01-20T17:21:05.381Z,21.40
2023-01-20T17:23:33.919Z,26.30
2023-01-20T17:26:02.732Z,22.40
2023-01-20T17:28:30.730Z,16.90
2023-01-20T17:31:02.212Z,15.70
2023-01-20T17:33:30.740Z,15.80
2023-01-20T17:36:00.659Z,15.40
2023-01-20T17:38:30.035Z,19.10
2023-01-20T17:41:01.281Z,17.70
2023-01-20T17:43:33.032Z,15.80
2023-01-20T17:46:01.584Z,16.50
2023-01-20T17:48:29.678Z,16.70
2023-01-20T17:50:58.657Z,21.10
2023-01-20T17:53:26.968Z,15.90
2023-01-20T17:56:06.726Z,16.90
2023-01-20T17:58:40.108Z,18.00
2023-01-20T18:01:12.997Z,13.50
2023-01-20T18:03:43.237Z,14.30
2023-01-20T18:06:13.145Z,14.90
2023-01-20T18:08:42.042Z,17.80
2023-01-20T18:11:12.507Z,16.10
2023-01-20T18:13:40.838Z,17.70
2023-01-20T18:16:11.814Z,20.00
2023-01-20T18:18:40.472Z,18.60
2023-01-20T18:21:09.712Z,18.60
2023-01-20T18:23:39.264Z,18.30
2023-01-20T18:26:08.461Z,19.10
2023-01-20T18:28:37.378Z,18.00
2023-01-20T18:31:07.730Z,18.80
2023-01-20T18:33:38.960Z,18.30
2023-01-20T18:36:09.555Z,15.20
2023-01-20T18:38:42.487Z,16.60
2023-01-20T18:41:11.984Z,19.40
2023-01-20T18:43:41.196Z,14.50
2023-01-20T18:46:10.194Z,15.80
2023-01-20T18:48:38.996Z,17.30
2023-01-20T18:51:09.629Z,18.70
2023-01-20T18:53:37.854Z,15.80
2023-01-20T18:56:08.542Z,11.50
2023-01-20T18:58:38.138Z,16.20
2023-01-20T19:01:08.499Z,15.50
2023-01-20T19:03:38.028Z,15.00
2023-01-20T19:06:10.036Z,16.90
2023-01-20T19:08:38.769Z,15.70
2023-01-20T19:11:09.988Z,11.50
2023-01-20T19:13:38.377Z,12.20
2023-01-20T19:16:09.837Z,14.40
2023-01-20T19:18:38.456Z,11.70
2023-01-20T19:21:08.244Z,13.00
2023-01-20T19:23:36.249Z,12.10
2023-01-20T19:26:07.173Z,13.10
2023-01-20T19:28:35.736Z,14.50
2023-01-20T19:31:08.894Z,12.70
2023-01-20T19:33:38.121Z,13.30
2023-01-20T19:36:10.110Z,12.80
2023-01-20T19:38:38.288Z,13.60
2023-01-20T19:41:08.310Z,15.10
2023-01-20T19:43:37.609Z,12.90
2023-01-20T19:46:07.660Z,11.10
2023-01-20T19:48:36.331Z,11.90
2023-01-20T19:51:05.797Z,12.60
2023-01-20T19:53:34.893Z,10.90
2023-01-20T19:56:07.208Z,9.40
2023-01-20T19:58:35.266Z,9.60
2023-01-20T20:01:07.301Z,14.10
2023-01-20T20:03:35.828Z,11.30
2023-01-20T20:06:05.657Z,9.80
2023-01-20T20:08:35.653Z,11.20
2023-01-20T20:11:04.036Z,15.40
2023-01-20T20:13:32.005Z,17.20
2023-01-20T20:16:04.346Z,12.60
2023-01-20T20:18:32.882Z,12.20
2023-01-20T20:21:00.842Z,14.90
2023-01-20T20:23:29.337Z,16.30
2023-01-20T20:25:57.408Z,20.20
2023-01-20T20:28:26.796Z,17.00
2023-01-20T20:30:56.010Z,15.70
2023-01-20T20:33:25.084Z,16.80
2023-01-20T20:35:53.363Z,17.10
2023-01-20T20:38:21.258Z,22.40
2023-01-20T20:40:49.285Z,20.10
2023-01-20T20:43:23.368Z,15.80
2023-01-20T20:45:54.153Z,13.30
2023-01-20T20:48:22.145Z,15.90
2023-01-20T20:50:50.455Z,15.00
2023-01-20T20:53:18.528Z,13.40
2023-01-20T20:55:46.441Z,12.90
2023-01-20T20:58:14.820Z,16.80
2023-01-20T21:00:42.766Z,13.20
2023-01-20T21:03:10.767Z,14.40
2023-01-20T21:05:38.709Z,11.40
2023-01-20T21:08:07.016Z,12.30
2023-01-20T21:10:34.995Z,12.90
2023-01-20T21:13:06.342Z,11.00
2023-01-20T21:15:37.841Z,13.40
2023-01-20T21:18:06.241Z,10.50
2023-01-20T21:20:34.347Z,10.50
2023-01-20T21:23:02.867Z,9.20
2023-01-20T21:25:32.428Z,12.30
2023-01-20T21:28:00.357Z,9.50
2023-01-20T21:30:28.477Z,10.00
2023-01-20T21:32:56.637Z,9.20
2023-01-20T21:35:24.749Z,9.60
2023-01-20T21:37:52.745Z,9.60
2023-01-20T21:40:20.890Z,8.20
2023-01-20T21:42:49.659Z,6.00
2023-01-20T21:45:17.835Z,8.90
2023-01-20T21:47:45.972Z,8.20
2023-01-20T21:50:32.927Z,7.80
2023-01-20T21:53:00.975Z,13.40
2023-01-20T21:55:32.283Z,8.30
2023-01-20T21:58:00.424Z,9.10
2023-01-20T22:00:29.071Z,9.00
2023-01-20T22:02:57.076Z,6.80
2023-01-20T22:05:25.126Z,9.00
2023-01-20T22:07:53.118Z,7.90
2023-01-20T22:10:21.385Z,8.20
2023-01-20T22:12:49.377Z,7.40
2023-01-20T22:15:17.444Z,7.40
2023-01-20T22:17:45.435Z,8.70
2023-01-20T22:20:14.600Z,9.60
2023-01-20T22:22:42.951Z,7.50
2023-01-20T22:25:11.488Z,7.20
2023-01-20T22:27:39.660Z,10.90
2023-01-20T22:30:10.423Z,10.20
2023-01-20T22:32:38.449Z,9.10
2023-01-20T22:35:07.632Z,11.80
2023-01-20T22:37:35.629Z,10.90
2023-01-20T22:40:05.632Z,9.30
2023-01-20T22:42:34.492Z,9.90
2023-01-20T22:45:02.582Z,11.80
2023-01-20T22:47:30.603Z,8.70
2023-01-20T22:49:58.548Z,9.80
2023-01-20T22:52:26.570Z,12.00
2023-01-20T22:54:54.486Z,10.20
2023-01-20T22:57:22.481Z,12.90
2023-01-20T22:59:50.389Z,11.90
2023-01-20T23:02:18.384Z,14.50
2023-01-20T23:04:46.403Z,12.80
2023-01-20T23:07:14.557Z,13.60
2023-01-20T23:09:42.640Z,13.00
2023-01-20T23:12:10.735Z,13.70
2023-01-20T23:14:57.396Z,15.00
2023-01-20T23:17:25.714Z,14.50
2023-01-20T23:19:54.148Z,15.80
2023-01-20T23:22:23.316Z,13.10
2023-01-20T23:24:51.525Z,15.10
2023-01-20T23:27:21.170Z,13.10
2023-01-20T23:29:55.087Z,14.20
2023-01-20T23:32:23.391Z,13.40
2023-01-20T23:34:51.316Z,14.80
2023-01-20T23:37:19.288Z,14.40
2023-01-20T23:39:51.559Z,17.40
2023-01-20T23:42:20.344Z,18.20
2023-01-20T23:44:48.283Z,15.00
2023-01-20T23:47:16.229Z,17.20
2023-01-20T23:49:44.219Z,16.70
2023-01-20T23:52:12.260Z,15.80
2023-01-20T23:54:40.323Z,19.80
2023-01-20T23:57:08.249Z,21.70
2023-01-20T23:59:37.475Z,19.50
